Time;durP1;ratioP1;P1;durP2;ratioP2;P2;SDS_P1;SDS_P2;PMS_P1;PMS_P2;Temp;Humidity;BMP_temperature;BMP_pressure;BME280_temperature;BME280_humidity;BME280_pressure;Samples;Min_cycle;Max_cycle;Signal;HPM_P1;HPM_P2
2022/06/12 00:00:56;;;;;;;16.00;11.33;;;;;;;15.13;70.18;99136.84;1748353;80;25594;-57
2022/06/12 00:03:26;;;;;;;14.68;11.43;;;;;;;15.07;70.49;99140.92;1779267;80;26798;-57
2022/06/12 00:05:56;;;;;;;14.45;10.90;;;;;;;15.07;70.63;99143.69;1780512;80;25644;-57
2022/06/12 00:08:24;;;;;;;12.60;10.80;;;;;;;14.95;70.66;99138.88;1780707;80;27598;-57
2022/06/12 00:10:53;;;;;;;13.78;10.60;;;;;;;14.83;70.80;99137.38;1780412;80;25920;-57
2022/06/12 00:13:25;;;;;;;15.72;10.88;;;;;;;14.83;70.80;99137.38;1779881;80;25661;-57
2022/06/12 00:15:53;;;;;;;13.68;9.85;;;;;;;14.87;71.04;99137.77;1780606;80;26532;-57
2022/06/12 00:18:19;;;;;;;17.07;11.38;;;;;;;14.90;70.96;99143.19;1779596;80;25725;-57
2022/06/12 00:20:46;;;;;;;15.43;10.68;;;;;;;14.91;71.22;99133.79;1779847;80;27495;-57
2022/06/12 00:23:16;;;;;;;16.90;11.25;;;;;;;14.95;71.11;99133.36;1780142;80;25474;-59
2022/06/12 00:25:42;;;;;;;14.45;11.12;;;;;;;14.92;71.19;99142.30;1780898;80;25620;-56
2022/06/12 00:28:09;;;;;;;13.30;11.03;;;;;;;14.87;71.24;99136.39;1780598;80;26056;-57
2022/06/12 00:30:36;;;;;;;15.78;11.65;;;;;;;14.83;71.36;99136.00;1780543;80;25391;-56
2022/06/12 00:33:03;;;;;;;14.87;11.18;;;;;;;14.74;71.88;99134.04;1780446;80;28358;-57
2022/06/12 00:35:34;;;;;;;14.30;11.83;;;;;;;14.74;71.88;99134.04;1780609;80;25840;-57
2022/06/12 00:38:02;;;;;;;16.52;12.07;;;;;;;14.77;71.74;99136.73;1780830;80;25629;-58
2022/06/12 00:40:29;;;;;;;17.50;12.28;;;;;;;14.75;71.68;99136.23;1780324;80;25751;-57
2022/06/12 00:43:00;;;;;;;15.65;11.48;;;;;;;14.64;71.80;99133.84;1780379;80;25472;-57
2022/06/12 00:45:32;;;;;;;;;;;;;;;14.58;72.11;99131.58;1783485;80;27535;-57
2022/06/12 00:48:03;;;;;;;16.50;12.18;;;;;;;14.48;72.09;99132.77;1779758;80;27196;-57
2022/06/12 00:50:31;;;;;;;17.52;11.45;;;;;;;14.48;72.09;99132.77;1767837;80;25553;-57
2022/06/12 00:52:58;;;;;;;17.77;11.65;;;;;;;14.46;72.21;99126.20;1780666;80;25632;-57
2022/06/12 00:55:33;;;;;;;21.35;12.30;;;;;;;14.43;72.26;99133.16;1780541;80;25605;-57
2022/06/12 00:58:04;;;;;;;14.83;11.20;;;;;;;14.35;72.62;99131.25;1779885;80;27378;-56
2022/06/12 01:00:32;;;;;;;17.60;11.93;;;;;;;14.33;72.75;99123.07;1780033;80;25580;-57
2022/06/12 01:02:59;;;;;;;16.67;13.00;;;;;;;14.33;72.75;99123.07;1778257;80;25731;-56
2022/06/12 01:08:13;;;;;;;15.70;11.65;;;;;;;14.21;73.10;99124.53;1775123;80;25380;-56
2022/06/12 01:10:44;;;;;;;22.27;12.60;;;;;;;14.21;73.19;99119.02;1775319;80;27278;-56
2022/06/12 01:13:26;;;;;;;18.23;11.55;;;;;;;14.21;73.19;99119.02;1775231;80;26379;-56
2022/06/12 01:16:01;;;;;;;18.20;12.33;;;;;;;14.30;72.98;99120.38;1775406;80;25601;-56
2022/06/12 01:18:32;;;;;;;16.97;12.10;;;;;;;14.16;73.64;99119.19;1777800;80;26503;-56
2022/06/12 01:21:25;;;;;;;16.90;12.10;;;;;;;14.16;73.64;99119.19;1776544;80;25633;-58
2022/06/12 01:24:00;;;;;;;13.98;11.45;;;;;;;14.15;73.34;99123.91;1775459;80;27602;-56
2022/06/12 01:26:40;;;;;;;18.95;12.05;;;;;;;14.09;73.62;99118.31;1778329;80;25625;-57
2022/06/12 01:29:43;;;;;;;18.52;12.43;;;;;;;14.08;73.67;99111.75;1774749;80;25565;-56
2022/06/12 01:32:32;;;;;;;17.27;12.20;;;;;;;14.12;73.94;99112.16;1775061;80;25639;-56
2022/06/12 01:35:23;;;;;;;16.12;12.33;;;;;;;14.15;74.04;99105.17;1775363;80;25638;-56
2022/06/12 01:38:03;;;;;;;17.80;12.98;;;;;;;14.18;73.80;99114.16;1775353;80;28300;-57
2022/06/12 01:40:41;;;;;;;16.50;12.70;;;;;;;14.17;74.02;99110.59;1748494;81;25441;-58
2022/06/12 01:43:18;;;;;;;19.32;13.68;;;;;;;14.15;73.59;99109.30;1773279;80;25752;-56
2022/06/12 01:46:19;;;;;;;16.00;12.75;;;;;;;14.07;73.73;99108.77;1775314;80;26469;-56
2022/06/12 01:49:23;;;;;;;15.88;12.20;;;;;;;14.00;73.98;99103.17;1775302;80;25648;-58
2022/06/12 01:52:03;;;;;;;19.20;12.73;;;;;;;13.83;74.42;99116.39;1756351;80;27409;-56
2022/06/12 01:54:36;;;;;;;;;;;;;;;13.83;74.42;99116.39;1766876;80;27166;-56
2022/06/12 01:57:16;;;;;;;30.37;17.67;;;;;;;13.76;74.67;99113.32;1775243;80;25585;-56
2022/06/12 02:00:00;;;;;;;23.92;15.65;;;;;;;13.72;74.87;99114.52;1777980;80;25756;-56
2022/06/12 02:02:34;;;;;;;23.35;14.85;;;;;;;13.72;75.02;99115.08;1770941;80;25637;-56
2022/06/12 02:05:06;;;;;;;17.77;12.00;;;;;;;13.77;74.92;99110.24;1770236;81;27381;-56
2022/06/12 02:07:47;;;;;;;18.98;13.85;;;;;;;13.78;74.80;99111.85;1770296;81;25719;-56
2022/06/12 02:10:23;;;;;;;;;;;;;;;13.75;74.81;99108.37;1773291;81;25609;-56
2022/06/12 02:13:13;;;;;;;18.45;12.75;;;;;;;13.73;74.78;99104.33;1770136;81;25735;-56
2022/06/12 02:15:57;;;;;;;18.32;12.75;;;;;;;13.73;74.64;99098.23;1770181;81;25633;-56
2022/06/12 02:18:31;;;;;;;18.62;13.18;;;;;;;13.74;74.38;99099.05;1770433;81;27407;-56
2022/06/12 02:21:08;;;;;;;17.55;13.03;;;;;;;13.69;74.73;99105.53;1769680;80;25913;-56
2022/06/12 02:23:52;;;;;;;19.73;12.80;;;;;;;13.71;74.55;99107.41;1770336;81;25592;-56
2022/06/12 02:26:23;;;;;;;19.35;11.85;;;;;;;13.68;74.63;99109.42;1768377;80;25765;-56
2022/06/12 02:28:58;;;;;;;17.05;13.00;;;;;;;13.62;74.71;99111.51;1770394;81;25644;-56
2022/06/12 02:31:37;;;;;;;18.30;13.00;;;;;;;13.54;74.89;99105.45;1770379;80;26931;-56
2022/06/12 02:34:09;;;;;;;18.90;12.45;;;;;;;13.48;75.07;99112.20;1769923;81;25422;-56
2022/06/12 02:36:40;;;;;;;18.00;13.30;;;;;;;13.39;75.27;99117.13;1770396;80;25605;-56
2022/06/12 02:39:18;;;;;;;20.27;12.88;;;;;;;13.33;75.54;99114.86;1770343;81;25866;-56
2022/06/12 02:41:51;;;;;;;17.67;12.50;;;;;;;13.37;75.69;99113.91;1764706;80;25471;-58
2022/06/12 02:44:23;;;;;;;19.60;11.97;;;;;;;13.46;75.58;99115.84;1770334;81;27373;-56
2022/06/12 02:47:00;;;;;;;18.02;13.43;;;;;;;13.45;75.60;99110.09;1677477;85;26040;-56
2022/06/12 02:49:26;;;;;;;16.52;12.25;;;;;;;13.46;75.96;99104.27;1678267;85;25680;-56
2022/06/12 02:51:58;;;;;;;17.98;12.05;;;;;;;13.51;75.82;99105.53;1678044;85;26599;-55
2022/06/12 02:54:52;;;;;;;17.50;12.10;;;;;;;13.54;75.79;99109.58;1677733;85;25838;-56
2022/06/12 02:57:35;;;;;;;16.87;11.55;;;;;;;13.58;75.78;99116.63;1678104;85;27506;-56
2022/06/12 03:00:25;;;;;;;16.42;12.13;;;;;;;13.55;75.89;99114.76;1678192;85;25547;-57
2022/06/12 03:03:25;;;;;;;17.85;12.15;;;;;;;13.51;75.98;99119.30;1678009;84;25888;-56
2022/06/12 03:05:59;;;;;;;17.20;12.18;;;;;;;13.47;76.48;99118.27;1678224;85;25731;-56
2022/06/12 03:08:30;;;;;;;17.55;12.93;;;;;;;13.58;76.50;99124.31;1677824;85;25695;-56
2022/06/12 03:11:20;;;;;;;17.25;12.35;;;;;;;13.53;76.48;99123.11;1677775;85;29485;-58
2022/06/12 03:13:49;;;;;;;14.58;11.48;;;;;;;13.47;76.75;99125.73;1678250;85;25472;-56
2022/06/12 03:16:27;;;;;;;16.05;11.73;;;;;;;13.39;77.00;99117.13;1678035;85;25742;-56
2022/06/12 03:19:13;;;;;;;13.30;10.88;;;;;;;13.41;77.24;99122.31;1677683;85;25763;-56
2022/06/12 03:22:23;;;;;;;16.67;11.53;;;;;;;13.58;77.21;99118.80;1678578;85;25636;-57
2022/06/12 03:25:22;;;;;;;17.60;11.70;;;;;;;13.68;76.78;99117.10;1741603;81;27345;-56
2022/06/12 03:28:17;;;;;;;16.50;11.53;;;;;;;13.79;76.79;99121.73;1770249;81;25561;-56
2022/06/12 03:31:21;;;;;;;14.68;11.43;;;;;;;13.83;77.35;99118.33;1641964;86;25726;-56
2022/06/12 03:33:58;;;;;;;14.90;11.45;;;;;;;13.93;77.52;99119.37;1640325;86;27794;-56
2022/06/12 03:36:35;;;;;;;18.17;12.43;;;;;;;14.08;77.03;99115.33;1641481;86;25853;-56
2022/06/12 03:39:10;;;;;;;16.40;13.00;;;;;;;14.11;77.17;99118.81;1640926;86;27606;-56
2022/06/12 03:41:56;;;;;;;18.30;12.75;;;;;;;14.23;77.51;99120.08;1641042;86;25822;-57
2022/06/12 03:44:48;;;;;;;19.48;12.88;;;;;;;14.47;77.20;99125.05;1641909;86;25757;-57
2022/06/12 03:47:27;;;;;;;18.50;13.48;;;;;;;14.72;76.21;99121.73;1642264;86;25862;-56
2022/06/12 03:50:11;;;;;;;19.85;12.88;;;;;;;14.93;76.32;99121.27;1641670;86;25966;-56
2022/06/12 03:52:45;;;;;;;16.07;12.90;;;;;;;15.13;75.24;99125.80;1640825;86;27658;-56
2022/06/12 03:57:50;;;;;;;18.45;12.73;;;;;;;15.33;74.87;99112.92;1639619;86;25876;-56
2022/06/12 03:57:57;;;;;;;16.50;12.85;;;;;;;15.85;74.34;99126.12;1637769;86;25491;-58
2022/06/12 04:00:40;;;;;;;19.92;12.78;;;;;;;15.85;74.34;99126.12;1642008;86;25699;-57
2022/06/12 04:03:14;;;;;;;16.17;12.05;;;;;;;16.05;73.56;99131.42;1640283;86;25905;-58
2022/06/12 04:05:45;;;;;;;16.93;12.75;;;;;;;16.09;72.97;99128.21;1641097;86;27393;-58
2022/06/12 04:08:22;;;;;;;19.02;12.40;;;;;;;16.31;73.30;99126.22;1737826;81;25950;-57
2022/06/12 04:10:49;;;;;;;18.20;12.98;;;;;;;16.54;72.25;99117.52;1770242;81;25435;-58
2022/06/12 04:13:18;;;;;;;16.25;12.85;;;;;;;16.76;72.03;99127.37;1770108;80;25625;-58
2022/06/12 04:15:56;;;;;;;16.77;12.18;;;;;;;16.95;71.88;99127.36;1770123;80;25596;-58
2022/06/12 04:18:24;;;;;;;16.73;12.20;;;;;;;17.19;71.12;99128.56;1769963;81;27422;-57
2022/06/12 04:21:04;;;;;;;16.57;12.65;;;;;;;17.38;70.31;99125.19;1769960;81;25718;-57
2022/06/12 04:23:54;;;;;;;17.05;11.88;;;;;;;17.60;70.10;99123.08;1770258;81;25456;-57
2022/06/12 04:26:43;;;;;;;19.55;11.38;;;;;;;17.73;69.67;99118.89;1769674;80;25844;-59
2022/06/12 04:29:18;;;;;;;12.78;11.08;;;;;;;17.94;69.17;99129.19;1770111;80;25463;-57
2022/06/12 04:31:48;;;;;;;15.03;10.70;;;;;;;18.03;68.10;99129.06;1770048;81;27510;-58
2022/06/12 04:34:28;;;;;;;11.80;10.35;;;;;;;18.10;68.57;99128.44;1770087;81;25743;-57
2022/06/12 04:37:03;;;;;;;14.85;10.60;;;;;;;18.24;67.51;99123.09;1766923;80;25732;-58
2022/06/12 04:39:35;;;;;;;13.58;10.20;;;;;;;18.36;67.71;99126.41;1769803;81;25744;-57
2022/06/12 04:42:02;;;;;;;10.35;9.20;;;;;;;18.55;67.52;99126.52;1769858;81;25695;-57
2022/06/12 04:44:28;;;;;;;10.25;8.90;;;;;;;18.63;67.44;99133.07;1770317;81;27488;-58
2022/06/12 04:46:58;;;;;;;11.35;9.00;;;;;;;18.77;67.44;99129.05;1769927;81;25717;-58
2022/06/12 04:49:28;;;;;;;12.63;9.30;;;;;;;18.88;66.93;99134.88;1770588;81;25635;-58
2022/06/12 04:51:59;;;;;;;13.25;11.30;;;;;;;19.04;66.75;99132.89;1770192;80;26530;-58
2022/06/12 04:54:26;;;;;;;;;;;;;;;19.21;66.46;99128.72;1772488;80;25550;-58
2022/06/12 04:56:52;;;;;;;13.98;10.58;;;;;;;19.44;66.52;99134.42;1768027;81;26735;-57
2022/06/12 04:59:20;;;;;;;14.93;11.08;;;;;;;19.62;65.54;99138.17;1768947;81;25811;-58
2022/06/12 05:01:48;;;;;;;13.03;10.43;;;;;;;19.66;64.77;99128.73;1796077;79;25918;-57
2022/06/12 05:04:15;;;;;;;13.48;10.05;;;;;;;19.72;64.87;99133.45;1798471;77;25807;-57
2022/06/12 05:06:44;;;;;;;14.90;9.73;;;;;;;19.84;64.48;99131.11;1797892;79;25640;-58
2022/06/12 05:09:14;;;;;;;12.93;10.03;;;;;;;19.98;64.31;99129.79;1795708;79;27461;-58
2022/06/12 05:11:41;;;;;;;13.90;10.10;;;;;;;20.07;62.88;99133.19;1795780;79;25640;-57
2022/06/12 05:14:07;;;;;;;10.80;9.68;;;;;;;20.11;63.26;99135.45;1796417;79;25454;-58
2022/06/12 05:16:44;;;;;;;13.53;10.00;;;;;;;20.20;62.96;99135.82;1739062;82;25869;-58
2022/06/12 05:19:15;;;;;;;12.95;10.88;;;;;;;20.30;62.54;99141.56;1770576;79;25464;-58
2022/06/12 05:21:42;;;;;;;13.80;10.50;;;;;;;20.44;62.42;99142.43;1775222;79;27652;-58
2022/06/12 05:24:09;;;;;;;12.93;9.43;;;;;;;20.61;62.16;99140.95;1796563;79;25442;-59
2022/06/12 05:26:38;;;;;;;12.18;9.58;;;;;;;20.65;61.41;99141.23;1796542;79;25613;-58
2022/06/12 05:29:08;;;;;;;12.55;10.15;;;;;;;20.75;61.44;99145.97;1795383;79;25742;-57
2022/06/12 05:31:35;;;;;;;14.40;9.65;;;;;;;20.85;61.25;99151.49;1796812;79;25447;-58
2022/06/12 05:34:02;;;;;;;12.82;9.83;;;;;;;20.98;61.36;99152.94;1796465;79;27885;-58
2022/06/12 05:36:28;;;;;;;12.33;10.10;;;;;;;21.11;61.54;99149.38;1796516;79;25400;-58
2022/06/12 05:38:54;;;;;;;11.75;9.73;;;;;;;21.25;61.67;99148.80;1796568;79;25571;-57
2022/06/12 05:41:20;;;;;;;11.40;9.23;;;;;;;21.34;61.55;99146.33;1740050;81;25696;-57
2022/06/12 05:43:47;;;;;;;14.75;9.60;;;;;;;21.47;62.03;99146.31;1794870;79;25687;-57
2022/06/12 05:46:16;;;;;;;10.38;9.28;;;;;;;21.60;60.40;99148.88;1796736;79;27425;-58
2022/06/12 05:48:44;;;;;;;9.53;8.58;;;;;;;21.73;60.63;99153.66;1796785;79;25419;-57
2022/06/12 05:51:14;;;;;;;12.40;9.18;;;;;;;21.93;60.31;99153.74;1796300;79;25663;-58
2022/06/12 05:53:41;;;;;;;9.25;8.10;;;;;;;22.15;59.88;99142.03;1727179;82;25637;-58
2022/06/12 05:56:12;;;;;;;9.10;8.10;;;;;;;22.24;58.25;99146.73;1795509;79;25460;-59
2022/06/12 05:58:39;;;;;;;10.60;8.30;;;;;;;22.31;58.46;99141.83;1738180;81;27446;-58
2022/06/12 06:01:09;;;;;;;10.08;7.55;;;;;;;22.35;57.14;99144.64;1742842;81;25665;-58
2022/06/12 06:03:36;;;;;;;11.67;7.33;;;;;;;22.31;56.96;99142.61;1724467;82;25659;-59
2022/06/12 06:06:04;;;;;;;9.35;8.15;;;;;;;22.44;57.10;99146.54;1744833;82;25693;-59
2022/06/12 06:08:31;;;;;;;11.43;8.20;;;;;;;22.51;56.47;99147.22;1737154;82;25669;-58
2022/06/12 06:10:57;;;;;;;13.13;10.10;;;;;;;22.72;56.93;99155.62;1737002;82;27455;-58
2022/06/12 06:13:23;;;;;;;15.58;9.95;;;;;;;22.79;56.62;99151.48;1737268;82;25632;-58
2022/06/12 06:15:50;;;;;;;12.50;9.00;;;;;;;22.79;56.37;99151.48;1737415;82;25870;-58
2022/06/12 06:18:18;;;;;;;13.62;8.90;;;;;;;22.86;55.92;99153.55;1737599;82;25690;-58
2022/06/12 06:20:45;;;;;;;10.03;8.80;;;;;;;22.96;56.27;99154.23;1737088;82;25692;-58
2022/06/12 06:23:12;;;;;;;11.15;8.90;;;;;;;23.21;56.33;99152.24;1737449;81;27473;-58
2022/06/12 06:25:39;;;;;;;10.30;8.85;;;;;;;23.42;55.22;99153.02;1737180;82;25862;-58
2022/06/12 06:28:06;;;;;;;9.83;8.68;;;;;;;23.51;55.27;99155.46;1737187;82;25539;-58
2022/06/12 06:30:33;;;;;;;10.43;9.28;;;;;;;23.64;54.22;99149.55;1737639;82;25880;-58
2022/06/12 06:32:59;;;;;;;9.73;7.90;;;;;;;23.73;54.54;99153.38;1737248;81;25677;-58
2022/06/12 06:35:39;;;;;;;9.85;7.95;;;;;;;23.84;53.65;99144.45;1737549;82;27646;-58
2022/06/12 06:38:06;;;;;;;10.32;7.67;;;;;;;23.90;53.91;99149.88;1737122;82;25610;-58
2022/06/12 06:40:34;;;;;;;9.78;6.83;;;;;;;23.88;53.35;99146.66;1737388;82;25467;-58
2022/06/12 06:43:01;;;;;;;10.28;6.85;;;;;;;24.02;53.39;99152.12;1737329;81;26572;-59
2022/06/12 06:48:13;;;;;;;8.58;7.00;;;;;;;24.24;52.21;99147.44;1737098;82;25633;-59
2022/06/12 06:50:41;;;;;;;7.80;6.42;;;;;;;24.29;51.77;99151.83;1737335;81;25682;-59
2022/06/12 06:53:09;;;;;;;7.97;6.75;;;;;;;24.32;51.96;99149.64;1737452;81;25476;-58
2022/06/12 06:55:36;;;;;;;8.25;6.17;;;;;;;24.51;51.27;99139.28;1737363;82;25728;-58
2022/06/12 06:58:10;;;;;;;9.93;6.60;;;;;;;24.67;51.68;99141.72;1737538;82;25610;-59
2022/06/12 07:00:38;;;;;;;8.58;6.53;;;;;;;24.86;50.42;99147.53;1737431;82;28206;-59
2022/06/12 07:03:06;;;;;;;8.08;6.83;;;;;;;25.08;50.68;99148.16;1737623;82;25793;-59
2022/06/12 07:05:34;;;;;;;8.95;6.83;;;;;;;25.06;49.80;99148.56;1794140;80;25608;-58
2022/06/12 07:08:01;;;;;;;8.25;6.40;;;;;;;25.22;49.21;99152.96;1794231;79;25906;-58
2022/06/12 07:10:31;;;;;;;7.97;6.60;;;;;;;25.29;51.48;99145.34;1753191;81;25650;-59
2022/06/12 07:12:58;;;;;;;6.12;5.25;;;;;;;25.54;49.09;99143.69;1728850;83;28100;-58
2022/06/12 07:15:26;;;;;;;6.28;5.65;;;;;;;25.74;47.85;99143.27;1728468;82;25616;-58
2022/06/12 07:17:58;;;;;;;7.45;4.83;;;;;;;25.58;48.04;99136.68;1728552;82;25656;-57
2022/06/12 07:20:29;;;;;;;6.55;4.70;;;;;;;25.78;48.54;99138.43;1728490;82;26896;-58
2022/06/12 07:22:57;;;;;;;6.10;4.70;;;;;;;26.13;46.37;99135.90;1728776;83;25467;-60
2022/06/12 07:25:23;;;;;;;7.30;4.83;;;;;;;26.39;47.43;99134.56;1728275;83;27487;-58
2022/06/12 07:27:51;;;;;;;5.75;4.50;;;;;;;26.69;46.65;99128.92;1728497;83;25918;-59
2022/06/12 07:30:22;;;;;;;7.22;4.60;;;;;;;26.78;45.62;99127.08;1709641;83;25476;-58
2022/06/12 07:32:50;;;;;;;6.92;4.40;;;;;;;27.00;44.88;99123.31;1709512;83;25808;-58
2022/06/12 07:35:18;;;;;;;5.15;4.65;;;;;;;27.07;43.36;99120.43;1728163;83;25562;-60
2022/06/12 07:37:45;;;;;;;5.45;4.12;;;;;;;27.04;43.79;99126.89;1728672;83;27368;-60
2022/06/12 07:40:19;;;;;;;6.00;4.15;;;;;;;26.97;42.61;99124.11;1728549;82;25840;-58
2022/06/12 07:42:46;;;;;;;5.75;4.28;;;;;;;27.18;44.19;99126.77;1728598;82;25641;-59
2022/06/12 07:45:13;;;;;;;5.33;4.05;;;;;;;27.44;43.34;99122.28;1728439;83;25718;-59
2022/06/12 07:47:40;;;;;;;5.47;3.95;;;;;;;27.35;41.56;99129.01;1728357;83;25590;-60
2022/06/12 07:50:09;;;;;;;4.00;3.52;;;;;;;27.24;41.91;99127.11;1728473;83;27656;-59
2022/06/12 07:52:39;;;;;;;5.10;2.77;;;;;;;27.54;41.68;99129.80;1728632;83;25491;-61
2022/06/12 07:55:10;;;;;;;3.22;2.92;;;;;;;27.47;40.83;99126.27;1728610;83;25535;-58
2022/06/12 07:57:38;;;;;;;4.67;2.92;;;;;;;27.55;41.08;99130.61;1728554;83;25717;-63
2022/06/12 08:00:08;;;;;;;4.25;2.90;;;;;;;27.87;40.94;99125.24;1728672;83;25479;-59
2022/06/12 08:02:35;;;;;;;3.30;2.83;;;;;;;28.23;39.61;99131.00;1728158;82;28092;-58
2022/06/12 08:05:01;;;;;;;2.75;2.40;;;;;;;28.32;38.32;99125.49;1725737;83;25442;-58
2022/06/12 08:07:27;;;;;;;2.80;2.22;;;;;;;28.52;38.86;99129.20;1726153;83;25684;-64
2022/06/12 08:09:54;;;;;;;4.87;2.55;;;;;;;28.42;35.71;99125.94;1726012;83;25938;-60
2022/06/12 08:12:20;;;;;;;3.27;2.77;;;;;;;28.19;37.15;99126.03;1726101;83;25681;-63
2022/06/12 08:14:48;;;;;;;3.22;2.77;;;;;;;28.20;37.79;99125.43;1725801;83;27904;-60
2022/06/12 08:17:15;;;;;;;4.00;2.98;;;;;;;28.40;38.61;99125.55;1725655;83;25584;-58
2022/06/12 08:22:27;;;;;;;3.33;3.00;;;;;;;28.93;38.83;99118.88;1725679;83;25568;-59
2022/06/12 08:24:53;;;;;;;3.83;2.87;;;;;;;29.35;38.28;99120.59;1725832;83;25566;-58
2022/06/12 08:27:19;;;;;;;3.83;3.20;;;;;;;29.19;36.62;99124.13;1725983;83;27515;-58
2022/06/12 08:29:45;;;;;;;4.67;3.05;;;;;;;28.98;37.75;99124.67;1725711;83;25875;-59
2022/06/12 08:32:19;;;;;;;5.60;3.30;;;;;;;28.87;36.54;99119.81;1725673;83;25596;-58
2022/06/12 08:34:53;;;;;;;3.52;2.98;;;;;;;28.81;36.85;99116.66;1724088;83;26531;-61
2022/06/12 08:37:25;;;;;;;4.40;3.12;;;;;;;28.93;36.80;99113.87;1722836;83;25412;-58
2022/06/12 08:39:52;;;;;;;3.75;3.08;;;;;;;29.18;37.25;99106.39;1724632;82;27445;-58
2022/06/12 08:42:27;;;;;;;4.33;2.95;;;;;;;29.66;37.71;99101.28;1725763;83;25392;-58
2022/06/12 08:45:08;;;;;;;4.25;3.00;;;;;;;30.08;35.56;99104.25;1725633;83;25620;-58
2022/06/12 08:47:59;;;;;;;3.77;2.70;;;;;;;30.30;35.94;99108.82;1726139;83;25752;-58
2022/06/12 08:50:52;;;;;;;3.27;2.90;;;;;;;30.52;35.43;99109.74;1725662;83;25654;-59
2022/06/12 08:53:47;;;;;;;3.98;2.90;;;;;;;30.65;37.05;99112.04;1725687;83;27420;-59
2022/06/12 08:56:25;;;;;;;2.90;2.58;;;;;;;30.82;34.80;99110.65;1725583;83;25696;-58
2022/06/12 08:59:33;;;;;;;3.98;2.47;;;;;;;31.05;35.41;99108.25;1702211;83;25670;-62
2022/06/12 09:02:04;;;;;;;4.12;2.58;;;;;;;31.38;35.14;99108.03;1723308;83;26891;-64
2022/06/12 09:04:31;;;;;;;4.30;2.60;;;;;;;31.50;32.96;99107.91;1731611;82;25432;-59
2022/06/12 09:07:02;;;;;;;3.25;2.58;;;;;;;31.38;32.31;99103.17;1733011;82;27526;-62
2022/06/12 09:09:34;;;;;;;3.72;2.72;;;;;;;31.60;31.63;99104.61;1733398;82;25891;-61
2022/06/12 09:12:41;;;;;;;4.37;2.42;;;;;;;31.87;32.89;99105.64;1732690;82;25739;-58
2022/06/12 09:15:28;;;;;;;3.50;2.60;;;;;;;32.18;29.91;99100.09;1682610;85;26701;-58
2022/06/12 09:18:06;;;;;;;3.70;2.30;;;;;;;31.77;31.97;99099.03;1710906;82;25485;-59
2022/06/12 09:20:52;;;;;;;4.62;2.60;;;;;;;31.57;33.28;99099.84;1684834;85;27455;-60
2022/06/12 09:23:51;;;;;;;3.98;2.50;;;;;;;31.06;32.51;99090.66;1685089;85;25621;-57
2022/06/12 09:26:29;;;;;;;2.30;2.00;;;;;;;30.44;33.50;99085.08;1676891;85;25496;-56
2022/06/12 09:29:04;;;;;;;4.03;2.30;;;;;;;30.20;33.60;99076.77;1685239;85;26567;-57
2022/06/12 09:31:55;;;;;;;3.05;2.05;;;;;;;29.86;34.07;99082.11;1684946;85;25691;-58
2022/06/12 09:34:49;;;;;;;3.12;2.33;;;;;;;29.70;34.32;99078.63;1684976;85;28339;-59
2022/06/12 09:40:34;;;;;;;3.45;1.70;;;;;;;29.65;35.71;99068.00;1684921;85;25490;-57
2022/06/12 09:43:37;;;;;;;3.10;2.17;;;;;;;29.74;33.60;99073.09;1683900;85;27789;-56
2022/06/12 09:46:09;;;;;;;2.65;1.70;;;;;;;30.14;34.60;99067.95;1684684;85;25739;-56
2022/06/12 09:48:58;;;;;;;2.52;1.77;;;;;;;30.70;32.57;99064.66;1691245;82;27480;-56
2022/06/12 09:51:33;;;;;;;3.67;2.02;;;;;;;31.09;33.51;99055.81;1805605;79;25476;-61
2022/06/12 09:54:10;;;;;;;4.67;1.90;;;;;;;31.60;32.54;99058.65;1807218;79;25402;-56
2022/06/12 09:56:53;;;;;;;2.62;1.90;;;;;;;31.84;31.19;99052.70;1802356;79;25651;-57
2022/06/12 09:59:37;;;;;;;2.45;1.95;;;;;;;31.17;29.65;99052.94;1807258;79;25593;-56
2022/06/12 10:02:14;;;;;;;3.90;2.00;;;;;;;30.77;31.02;99054.63;1807205;79;28402;-58
2022/06/12 10:04:58;;;;;;;3.42;1.80;;;;;;;30.89;31.66;99042.59;1802996;79;25683;-56
2022/06/12 10:07:36;;;;;;;2.25;1.80;;;;;;;30.89;30.22;99046.03;1802339;79;25459;-56
2022/06/12 10:10:09;;;;;;;2.83;2.17;;;;;;;31.08;29.97;99044.94;1799351;79;25891;-57
2022/06/12 10:12:40;;;;;;;3.25;1.75;;;;;;;31.22;29.99;99047.36;1799182;79;25655;-58
2022/06/12 10:15:19;;;;;;;1.72;1.62;;;;;;;30.92;31.41;99043.11;1799665;79;27960;-56
2022/06/12 10:17:56;;;;;;;2.77;1.70;;;;;;;30.72;31.30;99046.63;1798937;79;25680;-57
2022/06/12 10:20:32;;;;;;;3.08;1.67;;;;;;;29.93;30.33;99034.73;1797610;79;25435;-56
2022/06/12 10:23:00;;;;;;;2.02;1.82;;;;;;;29.47;31.38;99038.70;1799486;79;25749;-56
2022/06/12 10:25:44;;;;;;;2.55;1.75;;;;;;;28.98;32.56;99040.05;1799461;79;25773;-56
2022/06/12 10:28:21;;;;;;;3.12;2.10;;;;;;;28.58;32.56;99029.44;1797675;79;29491;-56
2022/06/12 10:31:04;;;;;;;2.33;2.10;;;;;;;28.58;32.85;99026.61;1799396;79;25771;-56
2022/06/12 10:33:44;;;;;;;2.77;1.82;;;;;;;29.02;33.85;99024.48;1798947;79;25568;-59
2022/06/12 10:36:32;;;;;;;2.25;2.02;;;;;;;29.63;33.32;99021.68;1753542;81;25699;-59
2022/06/12 10:39:21;;;;;;;2.62;1.90;;;;;;;29.96;33.83;99020.97;1725976;83;25571;-57
2022/06/12 10:42:00;;;;;;;4.92;2.08;;;;;;;30.75;33.25;99022.51;1725830;83;27373;-57
2022/06/12 10:44:32;;;;;;;2.40;2.00;;;;;;;31.20;31.38;99016.50;1703561;83;25642;-57
2022/06/12 10:47:24;;;;;;;2.27;1.92;;;;;;;31.43;30.21;99022.55;1719180;83;25602;-57
2022/06/12 10:50:05;;;;;;;2.60;2.10;;;;;;;31.65;29.39;99013.40;1704645;82;25705;-57
2022/06/12 10:52:31;;;;;;;3.98;2.08;;;;;;;31.97;29.24;99014.47;1771978;79;25802;-57
2022/06/12 10:54:58;;;;;;;2.08;1.85;;;;;;;32.05;28.42;99016.45;1788071;79;27212;-57
2022/06/12 10:57:51;;;;;;;2.92;1.80;;;;;;;32.12;30.41;99012.61;1771785;80;25701;-57
2022/06/12 11:00:23;;;;;;;2.67;1.57;;;;;;;32.79;31.25;99006.55;1774741;79;25680;-58
2022/06/12 11:03:27;;;;;;;1.90;1.50;;;;;;;33.67;29.36;99007.66;1775085;79;25567;-57
2022/06/12 11:06:07;;;;;;;3.10;1.57;;;;;;;33.99;29.14;98997.72;1774893;80;25376;-57
2022/06/12 11:09:01;;;;;;;2.10;1.75;;;;;;;34.13;27.91;98999.19;1772094;80;27789;-57
2022/06/12 11:12:17;;;;;;;2.70;1.60;;;;;;;33.93;26.09;98990.41;1775352;80;25379;-57
2022/06/12 11:15:07;;;;;;;2.08;1.50;;;;;;;32.87;26.73;98990.69;1778334;80;25628;-62
2022/06/12 11:17:57;;;;;;;1.67;1.45;;;;;;;32.47;27.56;98987.16;1763286;80;34579;-63
2022/06/12 11:20:37;;;;;;;2.10;1.40;;;;;;;32.78;28.66;98984.31;1732953;80;25508;-63
2022/06/12 11:23:27;;;;;;;3.25;1.40;;;;;;;32.48;27.76;98984.48;1775192;80;27934;-56
2022/06/12 11:26:20;;;;;;;1.42;1.32;;;;;;;31.98;28.03;98984.91;1775194;80;25669;-59
2022/06/12 11:29:20;;;;;;;1.90;1.70;;;;;;;31.48;29.72;98981.53;1778487;80;25578;-57
2022/06/12 11:32:22;;;;;;;2.40;1.70;;;;;;;31.78;29.66;98976.59;1763751;80;26083;-57
2022/06/12 11:35:15;;;;;;;2.33;1.35;;;;;;;32.47;30.29;98979.27;1776231;80;25416;-56
2022/06/12 11:38:08;;;;;;;2.15;1.35;;;;;;;33.03;30.37;98970.63;1778344;80;27783;-57
2022/06/12 11:40:46;;;;;;;2.35;1.40;;;;;;;33.87;28.32;98964.66;1778220;80;25700;-58
2022/06/12 11:43:36;;;;;;;2.22;1.45;;;;;;;34.00;28.69;98955.23;1778048;80;25852;-57
2022/06/12 11:46:45;;;;;;;1.20;1.10;;;;;;;34.23;25.90;98959.59;1778501;80;26450;-57
2022/06/12 11:49:25;;;;;;;1.62;1.30;;;;;;;34.31;26.13;98958.66;1807750;79;25708;-57
2022/06/12 11:52:39;;;;;;;1.87;1.30;;;;;;;34.36;26.27;98958.67;1801917;79;27486;-57
2022/06/12 11:55:47;;;;;;;2.12;1.30;;;;;;;34.71;27.36;98951.27;1784676;79;25601;-57
2022/06/12 11:58:53;;;;;;;2.47;1.20;;;;;;;35.62;26.67;98955.72;1767709;79;25791;-57
2022/06/12 12:01:41;;;;;;;2.92;1.30;;;;;;;36.41;23.82;98945.98;1739028;80;25733;-59
2022/06/12 12:04:48;;;;;;;1.67;1.30;;;;;;;36.68;23.70;98941.98;1751812;80;25523;-58
2022/06/12 12:07:38;;;;;;;1.80;1.60;;;;;;;35.87;24.06;98942.97;1779432;80;27393;-63
2022/06/12 12:10:21;;;;;;;2.27;1.62;;;;;;;34.89;24.26;98940.53;1769693;81;25633;-64
2022/06/12 12:12:53;;;;;;;1.50;1.40;;;;;;;34.15;24.57;98936.35;1770926;80;25396;-62
2022/06/12 12:15:30;;;;;;;2.22;1.30;;;;;;;33.83;24.92;98938.44;1769724;80;25871;-58
2022/06/12 12:18:01;;;;;;;1.65;1.30;;;;;;;34.10;24.95;98931.89;1770467;81;25634;-59
2022/06/12 12:20:38;;;;;;;1.55;1.25;;;;;;;34.32;24.58;98931.79;1770438;81;27999;-58